sensor_id;sensor_type;location;lat;lon;timestamp;temperature;humidity
983;DHT22;480;48.124;11.578;2023-04-09T00:00:14;6.30;99.90
983;DHT22;480;48.124;11.578;2023-04-09T00:02:41;6.40;99.90
983;DHT22;480;48.124;11.578;2023-04-09T00:05:08;6.40;99.90
983;DHT22;480;48.124;11.578;2023-04-09T00:07:36;6.40;99.90
983;DHT22;480;48.124;11.578;2023-04-09T00:10:05;6.40;99.90
983;DHT22;480;48.124;11.578;2023-04-09T00:12:32;6.50;99.90
983;DHT22;480;48.124;11.578;2023-04-09T00:14:59;6.50;99.90
983;DHT22;480;48.124;11.578;2023-04-09T00:17:26;6.40;99.90
983;DHT22;480;48.124;11.578;2023-04-09T00:19:53;6.30;99.90
983;DHT22;480;48.124;11.578;2023-04-09T00:22:20;6.30;99.90
983;DHT22;480;48.124;11.578;2023-04-09T00:24:48;6.30;99.90
983;DHT22;480;48.124;11.578;2023-04-09T00:27:15;6.40;99.90
983;DHT22;480;48.124;11.578;2023-04-09T00:29:42;6.40;99.90
983;DHT22;480;48.124;11.578;2023-04-09T00:32:09;6.40;99.90
983;DHT22;480;48.124;11.578;2023-04-09T00:34:37;6.50;99.90
983;DHT22;480;48.124;11.578;2023-04-09T00:37:04;6.40;99.90
983;DHT22;480;48.124;11.578;2023-04-09T00:39:31;6.50;99.90
983;DHT22;480;48.124;11.578;2023-04-09T00:42:00;6.40;99.90
983;DHT22;480;48.124;11.578;2023-04-09T00:44:28;6.40;99.90
983;DHT22;480;48.124;11.578;2023-04-09T00:46:55;6.30;99.90
983;DHT22;480;48.124;11.578;2023-04-09T00:49:24;6.30;99.90
983;DHT22;480;48.124;11.578;2023-04-09T00:51:51;6.30;99.90
983;DHT22;480;48.124;11.578;2023-04-09T00:54:18;6.10;99.90
983;DHT22;480;48.124;11.578;2023-04-09T00:56:46;6.10;99.90
983;DHT22;480;48.124;11.578;2023-04-09T00:59:14;6.10;99.90
983;DHT22;480;48.124;11.578;2023-04-09T01:01:41;6.20;99.90
983;DHT22;480;48.124;11.578;2023-04-09T01:04:09;6.20;99.90
983;DHT22;480;48.124;11.578;2023-04-09T01:06:41;6.40;99.90
983;DHT22;480;48.124;11.578;2023-04-09T01:09:16;6.50;99.90
983;DHT22;480;48.124;11.578;2023-04-09T01:11:53;6.50;99.90
983;DHT22;480;48.124;11.578;2023-04-09T01:14:29;6.60;99.90
983;DHT22;480;48.124;11.578;2023-04-09T01:17:03;6.60;99.90
983;DHT22;480;48.124;11.578;2023-04-09T01:19:43;6.80;99.90
983;DHT22;480;48.124;11.578;2023-04-09T01:22:23;6.70;99.90
983;DHT22;480;48.124;11.578;2023-04-09T01:25:02;6.60;99.90
983;DHT22;480;48.124;11.578;2023-04-09T01:27:41;6.70;99.90
983;DHT22;480;48.124;11.578;2023-04-09T01:30:14;6.80;99.90
983;DHT22;480;48.124;11.578;2023-04-09T01:32:42;6.60;99.90
983;DHT22;480;48.124;11.578;2023-04-09T01:35:09;6.60;99.90
983;DHT22;480;48.124;11.578;2023-04-09T01:37:37;6.60;99.90
983;DHT22;480;48.124;11.578;2023-04-09T01:40:06;6.60;99.90
983;DHT22;480;48.124;11.578;2023-04-09T01:42:35;6.40;99.90
983;DHT22;480;48.124;11.578;2023-04-09T01:45:05;6.40;99.90
983;DHT22;480;48.124;11.578;2023-04-09T01:47:35;6.30;99.90
983;DHT22;480;48.124;11.578;2023-04-09T01:50:02;6.40;99.90
983;DHT22;480;48.124;11.578;2023-04-09T01:52:30;6.50;99.90
983;DHT22;480;48.124;11.578;2023-04-09T01:54:57;6.70;99.90
983;DHT22;480;48.124;11.578;2023-04-09T01:57:24;6.60;99.90
983;DHT22;480;48.124;11.578;2023-04-09T01:59:51;6.50;99.90
983;DHT22;480;48.124;11.578;2023-04-09T02:02:23;6.60;99.90
983;DHT22;480;48.124;11.578;2023-04-09T02:04:56;6.60;99.90
983;DHT22;480;48.124;11.578;2023-04-09T02:07:32;6.60;99.90
983;DHT22;480;48.124;11.578;2023-04-09T02:10:01;6.50;99.90
983;DHT22;480;48.124;11.578;2023-04-09T02:12:30;6.60;99.90
983;DHT22;480;48.124;11.578;2023-04-09T02:14:59;6.70;99.90
983;DHT22;480;48.124;11.578;2023-04-09T02:17:27;6.90;99.90
983;DHT22;480;48.124;11.578;2023-04-09T02:19:55;6.90;99.90
983;DHT22;480;48.124;11.578;2023-04-09T02:22:22;6.70;99.90
983;DHT22;480;48.124;11.578;2023-04-09T02:24:50;6.70;99.90
983;DHT22;480;48.124;11.578;2023-04-09T02:27:17;6.70;99.90
983;DHT22;480;48.124;11.578;2023-04-09T02:29:44;6.50;99.90
983;DHT22;480;48.124;11.578;2023-04-09T02:32:12;6.40;99.90
983;DHT22;480;48.124;11.578;2023-04-09T02:34:39;6.50;99.90
983;DHT22;480;48.124;11.578;2023-04-09T02:37:07;6.50;99.90
983;DHT22;480;48.124;11.578;2023-04-09T02:39:34;6.60;99.90
983;DHT22;480;48.124;11.578;2023-04-09T02:42:01;6.70;99.90
983;DHT22;480;48.124;11.578;2023-04-09T02:44:28;6.70;99.90
983;DHT22;480;48.124;11.578;2023-04-09T02:46:55;6.60;99.90
983;DHT22;480;48.124;11.578;2023-04-09T02:49:22;6.60;99.90
983;DHT22;480;48.124;11.578;2023-04-09T02:51:49;6.50;99.90
983;DHT22;480;48.124;11.578;2023-04-09T02:54:18;6.50;99.90
983;DHT22;480;48.124;11.578;2023-04-09T02:56:45;6.30;99.90
983;DHT22;480;48.124;11.578;2023-04-09T02:59:12;6.40;99.90
983;DHT22;480;48.124;11.578;2023-04-09T03:01:39;6.50;99.90
983;DHT22;480;48.124;11.578;2023-04-09T03:04:06;6.50;99.90
983;DHT22;480;48.124;11.578;2023-04-09T03:06:33;6.40;99.90
983;DHT22;480;48.124;11.578;2023-04-09T03:09:00;6.40;99.90
983;DHT22;480;48.124;11.578;2023-04-09T03:11:29;6.40;99.90
983;DHT22;480;48.124;11.578;2023-04-09T03:13:56;6.20;99.90
983;DHT22;480;48.124;11.578;2023-04-09T03:16:23;6.10;99.90
983;DHT22;480;48.124;11.578;2023-04-09T03:18:51;6.20;99.90
983;DHT22;480;48.124;11.578;2023-04-09T03:21:18;6.10;99.90
983;DHT22;480;48.124;11.578;2023-04-09T03:23:45;6.20;99.90
983;DHT22;480;48.124;11.578;2023-04-09T03:26:12;6.30;99.90
983;DHT22;480;48.124;11.578;2023-04-09T03:28:41;6.50;99.90
983;DHT22;480;48.124;11.578;2023-04-09T03:31:08;6.60;99.90
983;DHT22;480;48.124;11.578;2023-04-09T03:33:35;6.50;99.90
983;DHT22;480;48.124;11.578;2023-04-09T03:36:02;6.40;99.90
983;DHT22;480;48.124;11.578;2023-04-09T03:38:30;6.40;99.90
983;DHT22;480;48.124;11.578;2023-04-09T03:40:57;6.50;99.90
983;DHT22;480;48.124;11.578;2023-04-09T03:43:24;6.40;99.90
983;DHT22;480;48.124;11.578;2023-04-09T03:45:53;6.60;99.90
983;DHT22;480;48.124;11.578;2023-04-09T03:48:20;6.30;99.90
983;DHT22;480;48.124;11.578;2023-04-09T03:50:47;6.10;99.90
983;DHT22;480;48.124;11.578;2023-04-09T03:53:14;6.00;99.90
983;DHT22;480;48.124;11.578;2023-04-09T03:55:41;5.90;99.90
983;DHT22;480;48.124;11.578;2023-04-09T03:58:08;6.00;99.90
983;DHT22;480;48.124;11.578;2023-04-09T04:00:36;6.00;99.90
983;DHT22;480;48.124;11.578;2023-04-09T04:03:04;5.60;99.90
983;DHT22;480;48.124;11.578;2023-04-09T04:05:31;5.60;99.90
983;DHT22;480;48.124;11.578;2023-04-09T04:07:58;5.70;99.90
983;DHT22;480;48.124;11.578;2023-04-09T04:10:25;5.80;99.90
983;DHT22;480;48.124;11.578;2023-04-09T04:12:52;5.90;99.90
983;DHT22;480;48.124;11.578;2023-04-09T04:15:19;6.10;99.90
983;DHT22;480;48.124;11.578;2023-04-09T04:17:46;6.00;99.90
983;DHT22;480;48.124;11.578;2023-04-09T04:20:14;5.90;99.90
983;DHT22;480;48.124;11.578;2023-04-09T04:22:41;5.80;99.90
983;DHT22;480;48.124;11.578;2023-04-09T04:25:09;6.00;99.90
983;DHT22;480;48.124;11.578;2023-04-09T04:27:36;6.10;99.90
983;DHT22;480;48.124;11.578;2023-04-09T04:30:05;6.10;99.90
983;DHT22;480;48.124;11.578;2023-04-09T04:32:32;5.90;99.90
983;DHT22;480;48.124;11.578;2023-04-09T04:34:59;5.70;99.90
983;DHT22;480;48.124;11.578;2023-04-09T04:37:28;5.40;99.90
983;DHT22;480;48.124;11.578;2023-04-09T04:39:55;5.40;99.90
983;DHT22;480;48.124;11.578;2023-04-09T04:42:22;5.50;99.90
983;DHT22;480;48.124;11.578;2023-04-09T04:44:49;5.70;99.90
983;DHT22;480;48.124;11.578;2023-04-09T04:47:16;5.60;99.90
983;DHT22;480;48.124;11.578;2023-04-09T04:49:43;5.60;99.90
983;DHT22;480;48.124;11.578;2023-04-09T04:52:11;5.70;99.90
983;DHT22;480;48.124;11.578;2023-04-09T04:54:39;5.70;99.90
983;DHT22;480;48.124;11.578;2023-04-09T04:57:06;5.80;99.90
983;DHT22;480;48.124;11.578;2023-04-09T04:59:36;5.70;99.90
983;DHT22;480;48.124;11.578;2023-04-09T05:02:03;5.80;99.90
983;DHT22;480;48.124;11.578;2023-04-09T05:04:30;6.00;99.90
983;DHT22;480;48.124;11.578;2023-04-09T05:06:57;6.10;99.90
983;DHT22;480;48.124;11.578;2023-04-09T05:09:24;5.90;99.90
983;DHT22;480;48.124;11.578;2023-04-09T05:11:52;6.00;99.90
983;DHT22;480;48.124;11.578;2023-04-09T05:14:21;5.90;99.90
983;DHT22;480;48.124;11.578;2023-04-09T05:16:49;5.50;99.90
983;DHT22;480;48.124;11.578;2023-04-09T05:19:16;5.40;99.90
983;DHT22;480;48.124;11.578;2023-04-09T05:21:43;5.30;99.90
983;DHT22;480;48.124;11.578;2023-04-09T05:24:11;5.10;99.90
983;DHT22;480;48.124;11.578;2023-04-09T05:26:38;5.30;99.90
983;DHT22;480;48.124;11.578;2023-04-09T05:29:06;5.20;99.90
983;DHT22;480;48.124;11.578;2023-04-09T05:31:34;5.10;99.90
983;DHT22;480;48.124;11.578;2023-04-09T05:34:01;5.00;99.90
983;DHT22;480;48.124;11.578;2023-04-09T05:36:28;4.90;99.90
983;DHT22;480;48.124;11.578;2023-04-09T05:38:55;4.70;99.90
983;DHT22;480;48.124;11.578;2023-04-09T05:41:22;4.80;99.90
983;DHT22;480;48.124;11.578;2023-04-09T05:43:49;4.90;99.90
983;DHT22;480;48.124;11.578;2023-04-09T05:46:17;4.80;99.90
983;DHT22;480;48.124;11.578;2023-04-09T05:48:44;4.70;99.90
983;DHT22;480;48.124;11.578;2023-04-09T05:51:11;4.80;99.90
983;DHT22;480;48.124;11.578;2023-04-09T05:53:40;5.00;99.90
983;DHT22;480;48.124;11.578;2023-04-09T05:56:12;5.20;99.90
983;DHT22;480;48.124;11.578;2023-04-09T05:58:40;5.40;99.90
983;DHT22;480;48.124;11.578;2023-04-09T06:01:07;5.60;99.90
983;DHT22;480;48.124;11.578;2023-04-09T06:03:36;5.70;99.90
983;DHT22;480;48.124;11.578;2023-04-09T06:06:03;5.60;99.90
983;DHT22;480;48.124;11.578;2023-04-09T06:08:30;5.60;99.90
983;DHT22;480;48.124;11.578;2023-04-09T06:10:57;5.60;99.90
983;DHT22;480;48.124;11.578;2023-04-09T06:13:24;5.70;99.90
983;DHT22;480;48.124;11.578;2023-04-09T06:15:51;6.00;99.90
983;DHT22;480;48.124;11.578;2023-04-09T06:18:18;5.90;99.90
983;DHT22;480;48.124;11.578;2023-04-09T06:20:47;6.10;99.90
983;DHT22;480;48.124;11.578;2023-04-09T06:23:14;6.30;99.90
983;DHT22;480;48.124;11.578;2023-04-09T06:25:41;6.20;99.90
983;DHT22;480;48.124;11.578;2023-04-09T06:28:08;6.40;99.90
983;DHT22;480;48.124;11.578;2023-04-09T06:30:35;6.50;99.90
983;DHT22;480;48.124;11.578;2023-04-09T06:33:02;6.60;99.90
983;DHT22;480;48.124;11.578;2023-04-09T06:35:29;6.60;99.90
983;DHT22;480;48.124;11.578;2023-04-09T06:37:58;6.70;99.90
983;DHT22;480;48.124;11.578;2023-04-09T06:40:26;6.20;99.90
983;DHT22;480;48.124;11.578;2023-04-09T06:42:53;6.30;99.90
983;DHT22;480;48.124;11.578;2023-04-09T06:45:20;6.20;99.90
983;DHT22;480;48.124;11.578;2023-04-09T06:47:47;6.40;99.90
983;DHT22;480;48.124;11.578;2023-04-09T06:50:14;6.30;99.90
983;DHT22;480;48.124;11.578;2023-04-09T06:52:41;6.10;99.90
983;DHT22;480;48.124;11.578;2023-04-09T06:55:10;6.10;99.90
983;DHT22;480;48.124;11.578;2023-04-09T06:57:37;6.30;99.90
983;DHT22;480;48.124;11.578;2023-04-09T07:00:05;6.60;99.90
983;DHT22;480;48.124;11.578;2023-04-09T07:02:33;6.40;99.90
983;DHT22;480;48.124;11.578;2023-04-09T07:05:00;6.60;99.90
983;DHT22;480;48.124;11.578;2023-04-09T07:07:27;6.50;99.90
983;DHT22;480;48.124;11.578;2023-04-09T07:09:55;6.60;99.90
983;DHT22;480;48.124;11.578;2023-04-09T07:12:27;6.90;99.90
983;DHT22;480;48.124;11.578;2023-04-09T07:14:56;7.10;99.90
983;DHT22;480;48.124;11.578;2023-04-09T07:17:24;6.90;99.90
983;DHT22;480;48.124;11.578;2023-04-09T07:19:51;6.70;99.90
983;DHT22;480;48.124;11.578;2023-04-09T07:22:19;6.60;99.90
983;DHT22;480;48.124;11.578;2023-04-09T07:24:46;6.70;99.90
983;DHT22;480;48.124;11.578;2023-04-09T07:27:18;6.70;99.90
983;DHT22;480;48.124;11.578;2023-04-09T07:29:47;6.80;99.90
983;DHT22;480;48.124;11.578;2023-04-09T07:32:14;6.70;99.90
983;DHT22;480;48.124;11.578;2023-04-09T07:34:42;6.80;99.90
983;DHT22;480;48.124;11.578;2023-04-09T07:37:09;6.90;99.90
983;DHT22;480;48.124;11.578;2023-04-09T07:39:37;7.30;99.90
983;DHT22;480;48.124;11.578;2023-04-09T07:42:04;7.10;99.90
983;DHT22;480;48.124;11.578;2023-04-09T07:44:33;7.10;99.90
983;DHT22;480;48.124;11.578;2023-04-09T07:47:03;7.00;99.90
983;DHT22;480;48.124;11.578;2023-04-09T07:49:30;7.30;99.90
983;DHT22;480;48.124;11.578;2023-04-09T07:51:58;7.40;99.90
983;DHT22;480;48.124;11.578;2023-04-09T07:54:25;7.60;99.90
983;DHT22;480;48.124;11.578;2023-04-09T07:56:53;7.90;99.90
983;DHT22;480;48.124;11.578;2023-04-09T07:59:20;8.00;99.90
983;DHT22;480;48.124;11.578;2023-04-09T08:01:48;8.20;99.90
983;DHT22;480;48.124;11.578;2023-04-09T08:04:16;8.20;99.90
983;DHT22;480;48.124;11.578;2023-04-09T08:06:43;8.50;99.90
983;DHT22;480;48.124;11.578;2023-04-09T08:09:15;8.80;99.90
983;DHT22;480;48.124;11.578;2023-04-09T08:11:42;8.70;99.90
983;DHT22;480;48.124;11.578;2023-04-09T08:14:10;8.40;99.90
983;DHT22;480;48.124;11.578;2023-04-09T08:16:38;8.00;99.90
983;DHT22;480;48.124;11.578;2023-04-09T08:19:06;8.20;99.90
983;DHT22;480;48.124;11.578;2023-04-09T08:21:35;8.50;99.90
983;DHT22;480;48.124;11.578;2023-04-09T08:24:03;8.30;99.90
983;DHT22;480;48.124;11.578;2023-04-09T08:26:30;8.10;99.90
983;DHT22;480;48.124;11.578;2023-04-09T08:28:57;8.30;99.90
983;DHT22;480;48.124;11.578;2023-04-09T08:31:24;8.40;99.90
983;DHT22;480;48.124;11.578;2023-04-09T08:33:51;8.60;99.90
983;DHT22;480;48.124;11.578;2023-04-09T08:36:19;9.00;99.90
983;DHT22;480;48.124;11.578;2023-04-09T08:38:47;9.10;99.90
983;DHT22;480;48.124;11.578;2023-04-09T08:41:18;8.60;99.90
983;DHT22;480;48.124;11.578;2023-04-09T08:43:46;8.70;99.90
983;DHT22;480;48.124;11.578;2023-04-09T08:46:14;8.90;99.90
983;DHT22;480;48.124;11.578;2023-04-09T08:48:43;9.00;99.90
983;DHT22;480;48.124;11.578;2023-04-09T08:51:14;9.10;99.90
983;DHT22;480;48.124;11.578;2023-04-09T08:53:43;8.90;99.90
983;DHT22;480;48.124;11.578;2023-04-09T08:56:13;8.70;99.90
983;DHT22;480;48.124;11.578;2023-04-09T08:58:46;8.30;99.90
983;DHT22;480;48.124;11.578;2023-04-09T09:01:21;8.70;99.90
983;DHT22;480;48.124;11.578;2023-04-09T09:03:53;9.10;99.90
983;DHT22;480;48.124;11.578;2023-04-09T09:06:21;9.40;99.90
983;DHT22;480;48.124;11.578;2023-04-09T09:09:02;9.20;99.90
983;DHT22;480;48.124;11.578;2023-04-09T09:11:31;8.80;99.90
983;DHT22;480;48.124;11.578;2023-04-09T09:13:59;8.70;99.90
983;DHT22;480;48.124;11.578;2023-04-09T09:16:26;9.00;99.90
983;DHT22;480;48.124;11.578;2023-04-09T09:18:54;9.10;99.90
983;DHT22;480;48.124;11.578;2023-04-09T09:21:22;9.10;99.90
983;DHT22;480;48.124;11.578;2023-04-09T09:23:49;9.30;99.90
983;DHT22;480;48.124;11.578;2023-04-09T09:26:17;9.20;99.90
983;DHT22;480;48.124;11.578;2023-04-09T09:28:47;9.10;99.90
983;DHT22;480;48.124;11.578;2023-04-09T09:31:15;9.00;99.90
983;DHT22;480;48.124;11.578;2023-04-09T09:33:42;8.80;99.90
983;DHT22;480;48.124;11.578;2023-04-09T09:36:09;8.70;99.90
983;DHT22;480;48.124;11.578;2023-04-09T09:38:50;9.10;99.90
983;DHT22;480;48.124;11.578;2023-04-09T09:41:19;8.90;99.90
983;DHT22;480;48.124;11.578;2023-04-09T09:43:47;9.30;99.90
983;DHT22;480;48.124;11.578;2023-04-09T09:46:15;9.10;99.90
983;DHT22;480;48.124;11.578;2023-04-09T09:48:42;8.80;99.90
983;DHT22;480;48.124;11.578;2023-04-09T09:51:12;9.00;99.90
983;DHT22;480;48.124;11.578;2023-04-09T09:53:40;9.40;99.90
983;DHT22;480;48.124;11.578;2023-04-09T09:56:13;9.20;99.90
983;DHT22;480;48.124;11.578;2023-04-09T09:58:44;9.20;99.90
983;DHT22;480;48.124;11.578;2023-04-09T10:01:13;9.50;99.90
983;DHT22;480;48.124;11.578;2023-04-09T10:03:43;9.70;99.90
983;DHT22;480;48.124;11.578;2023-04-09T10:06:10;9.90;99.90
983;DHT22;480;48.124;11.578;2023-04-09T10:08:40;10.10;99.90
983;DHT22;480;48.124;11.578;2023-04-09T10:11:08;10.20;99.90
983;DHT22;480;48.124;11.578;2023-04-09T10:13:38;10.10;99.90
983;DHT22;480;48.124;11.578;2023-04-09T10:16:06;10.10;99.90
983;DHT22;480;48.124;11.578;2023-04-09T10:18:35;10.00;99.90
983;DHT22;480;48.124;11.578;2023-04-09T10:21:08;10.00;99.90
983;DHT22;480;48.124;11.578;2023-04-09T10:23:39;10.20;99.90
983;DHT22;480;48.124;11.578;2023-04-09T10:26:07;9.90;99.90
983;DHT22;480;48.124;11.578;2023-04-09T10:28:36;9.90;99.90
983;DHT22;480;48.124;11.578;2023-04-09T10:31:04;10.20;99.90
983;DHT22;480;48.124;11.578;2023-04-09T10:33:35;10.40;99.90
983;DHT22;480;48.124;11.578;2023-04-09T10:36:03;10.20;99.90
983;DHT22;480;48.124;11.578;2023-04-09T10:38:35;10.50;99.90
983;DHT22;480;48.124;11.578;2023-04-09T10:41:13;10.80;99.90
983;DHT22;480;48.124;11.578;2023-04-09T10:43:41;10.60;99.90
983;DHT22;480;48.124;11.578;2023-04-09T10:46:24;10.60;99.90
983;DHT22;480;48.124;11.578;2023-04-09T10:49:13;10.90;99.90
983;DHT22;480;48.124;11.578;2023-04-09T10:51:42;10.70;99.90
983;DHT22;480;48.124;11.578;2023-04-09T10:54:44;10.40;99.90
983;DHT22;480;48.124;11.578;2023-04-09T10:57:13;10.60;99.90
983;DHT22;480;48.124;11.578;2023-04-09T10:59:42;10.70;99.90
983;DHT22;480;48.124;11.578;2023-04-09T11:02:37;10.90;99.90
983;DHT22;480;48.124;11.578;2023-04-09T11:05:18;10.60;99.90
983;DHT22;480;48.124;11.578;2023-04-09T11:07:53;10.60;99.90
983;DHT22;480;48.124;11.578;2023-04-09T11:10:21;9.90;99.90
983;DHT22;480;48.124;11.578;2023-04-09T11:12:48;9.80;99.90
983;DHT22;480;48.124;11.578;2023-04-09T11:15:15;10.20;99.90
983;DHT22;480;48.124;11.578;2023-04-09T11:17:43;10.30;99.90
983;DHT22;480;48.124;11.578;2023-04-09T11:20:10;10.70;99.90
983;DHT22;480;48.124;11.578;2023-04-09T11:22:39;10.70;99.90
983;DHT22;480;48.124;11.578;2023-04-09T11:25:07;10.70;99.90
983;DHT22;480;48.124;11.578;2023-04-09T11:27:36;11.00;99.90
983;DHT22;480;48.124;11.578;2023-04-09T11:30:05;10.50;99.90
983;DHT22;480;48.124;11.578;2023-04-09T11:32:32;10.80;99.90
983;DHT22;480;48.124;11.578;2023-04-09T11:35:00;10.70;99.90
983;DHT22;480;48.124;11.578;2023-04-09T11:37:27;10.70;99.90
983;DHT22;480;48.124;11.578;2023-04-09T11:39:55;10.80;99.90
983;DHT22;480;48.124;11.578;2023-04-09T11:42:23;10.90;99.90
983;DHT22;480;48.124;11.578;2023-04-09T11:44:51;10.90;99.90
983;DHT22;480;48.124;11.578;2023-04-09T11:47:19;10.80;99.90
983;DHT22;480;48.124;11.578;2023-04-09T11:49:46;10.70;99.90
983;DHT22;480;48.124;11.578;2023-04-09T11:52:13;10.80;99.90
983;DHT22;480;48.124;11.578;2023-04-09T11:54:41;10.80;99.90
983;DHT22;480;48.124;11.578;2023-04-09T11:57:10;10.60;99.90
983;DHT22;480;48.124;11.578;2023-04-09T11:59:37;10.50;99.90
983;DHT22;480;48.124;11.578;2023-04-09T12:02:05;10.50;99.90
983;DHT22;480;48.124;11.578;2023-04-09T12:04:33;10.50;99.90
983;DHT22;480;48.124;11.578;2023-04-09T12:07:00;10.20;99.90
983;DHT22;480;48.124;11.578;2023-04-09T12:09:27;10.20;99.90
983;DHT22;480;48.124;11.578;2023-04-09T12:11:54;10.40;99.90
983;DHT22;480;48.124;11.578;2023-04-09T12:14:23;10.10;99.90
983;DHT22;480;48.124;11.578;2023-04-09T12:16:51;10.30;99.90
983;DHT22;480;48.124;11.578;2023-04-09T12:19:18;10.40;99.90
983;DHT22;480;48.124;11.578;2023-04-09T12:21:48;10.60;99.90
983;DHT22;480;48.124;11.578;2023-04-09T12:24:18;10.50;99.90
983;DHT22;480;48.124;11.578;2023-04-09T12:26:47;10.70;99.90
983;DHT22;480;48.124;11.578;2023-04-09T12:29:14;11.00;99.90
983;DHT22;480;48.124;11.578;2023-04-09T12:31:44;11.20;99.90
983;DHT22;480;48.124;11.578;2023-04-09T12:34:12;11.40;99.90
983;DHT22;480;48.124;11.578;2023-04-09T12:36:39;11.40;99.90
983;DHT22;480;48.124;11.578;2023-04-09T12:39:08;10.40;99.90
983;DHT22;480;48.124;11.578;2023-04-09T12:41:35;10.30;99.90
983;DHT22;480;48.124;11.578;2023-04-09T12:44:02;10.60;99.90
983;DHT22;480;48.124;11.578;2023-04-09T12:46:29;10.90;99.90
983;DHT22;480;48.124;11.578;2023-04-09T12:48:58;11.10;99.90
983;DHT22;480;48.124;11.578;2023-04-09T12:51:25;11.30;99.90
983;DHT22;480;48.124;11.578;2023-04-09T12:53:53;11.30;99.90
983;DHT22;480;48.124;11.578;2023-04-09T12:56:22;10.90;99.90
983;DHT22;480;48.124;11.578;2023-04-09T12:58:49;10.70;99.90
983;DHT22;480;48.124;11.578;2023-04-09T13:01:16;10.90;99.90
983;DHT22;480;48.124;11.578;2023-04-09T13:03:43;10.70;99.90
983;DHT22;480;48.124;11.578;2023-04-09T13:06:12;10.70;99.90
983;DHT22;480;48.124;11.578;2023-04-09T13:08:39;10.60;99.90
983;DHT22;480;48.124;11.578;2023-04-09T13:11:06;11.00;99.90
983;DHT22;480;48.124;11.578;2023-04-09T13:13:33;11.10;99.90
983;DHT22;480;48.124;11.578;2023-04-09T13:16:00;11.10;99.90
983;DHT22;480;48.124;11.578;2023-04-09T13:18:27;11.20;99.90
983;DHT22;480;48.124;11.578;2023-04-09T13:20:55;11.70;99.90
983;DHT22;480;48.124;11.578;2023-04-09T13:23:23;11.00;99.90
983;DHT22;480;48.124;11.578;2023-04-09T13:25:50;10.50;99.90
983;DHT22;480;48.124;11.578;2023-04-09T13:28:17;10.20;99.90
983;DHT22;480;48.124;11.578;2023-04-09T13:30:44;10.00;99.90
983;DHT22;480;48.124;11.578;2023-04-09T13:33:11;10.30;99.90
983;DHT22;480;48.124;11.578;2023-04-09T13:35:38;10.30;99.90
983;DHT22;480;48.124;11.578;2023-04-09T13:38:05;10.50;99.90
983;DHT22;480;48.124;11.578;2023-04-09T13:40:34;10.60;99.90
983;DHT22;480;48.124;11.578;2023-04-09T13:43:01;10.60;99.90
983;DHT22;480;48.124;11.578;2023-04-09T13:45:28;10.50;99.90
983;DHT22;480;48.124;11.578;2023-04-09T13:47:55;9.80;99.90
983;DHT22;480;48.124;11.578;2023-04-09T13:50:22;10.00;99.90
983;DHT22;480;48.124;11.578;2023-04-09T13:52:49;10.00;99.90
983;DHT22;480;48.124;11.578;2023-04-09T13:55:16;10.10;99.90
983;DHT22;480;48.124;11.578;2023-04-09T13:57:44;10.30;99.90
983;DHT22;480;48.124;11.578;2023-04-09T14:00:12;10.30;99.90
983;DHT22;480;48.124;11.578;2023-04-09T14:02:39;10.30;99.90
983;DHT22;480;48.124;11.578;2023-04-09T14:05:07;10.60;99.90
983;DHT22;480;48.124;11.578;2023-04-09T14:07:34;10.90;99.90
983;DHT22;480;48.124;11.578;2023-04-09T14:10:01;11.60;99.90
983;DHT22;480;48.124;11.578;2023-04-09T14:12:28;11.90;99.90
983;DHT22;480;48.124;11.578;2023-04-09T14:14:57;12.40;99.90
983;DHT22;480;48.124;11.578;2023-04-09T14:17:24;12.80;99.90
983;DHT22;480;48.124;11.578;2023-04-09T14:19:50;11.80;99.90
983;DHT22;480;48.124;11.578;2023-04-09T14:22:17;11.20;99.90
983;DHT22;480;48.124;11.578;2023-04-09T14:24:45;11.00;99.90
983;DHT22;480;48.124;11.578;2023-04-09T14:27:12;10.90;99.90
983;DHT22;480;48.124;11.578;2023-04-09T14:29:38;10.90;99.90
983;DHT22;480;48.124;11.578;2023-04-09T14:32:07;10.90;99.90
983;DHT22;480;48.124;11.578;2023-04-09T14:34:34;10.80;99.90
983;DHT22;480;48.124;11.578;2023-04-09T14:37:01;11.10;99.90
983;DHT22;480;48.124;11.578;2023-04-09T14:39:28;11.50;99.90
983;DHT22;480;48.124;11.578;2023-04-09T14:41:55;11.50;99.90
983;DHT22;480;48.124;11.578;2023-04-09T14:44:22;11.30;99.90
983;DHT22;480;48.124;11.578;2023-04-09T14:46:53;11.30;99.90
983;DHT22;480;48.124;11.578;2023-04-09T14:49:23;11.10;99.90
983;DHT22;480;48.124;11.578;2023-04-09T14:51:50;10.90;99.90
983;DHT22;480;48.124;11.578;2023-04-09T14:54:17;10.20;99.90
983;DHT22;480;48.124;11.578;2023-04-09T14:56:44;10.10;99.90
983;DHT22;480;48.124;11.578;2023-04-09T14:59:11;10.00;99.90
983;DHT22;480;48.124;11.578;2023-04-09T15:01:38;10.30;99.90
983;DHT22;480;48.124;11.578;2023-04-09T15:04:05;10.50;99.90
983;DHT22;480;48.124;11.578;2023-04-09T15:06:34;10.60;99.90
983;DHT22;480;48.124;11.578;2023-04-09T15:09:01;11.00;99.90
983;DHT22;480;48.124;11.578;2023-04-09T15:11:28;10.90;99.90
983;DHT22;480;48.124;11.578;2023-04-09T15:13:55;11.00;99.90
983;DHT22;480;48.124;11.578;2023-04-09T15:16:23;10.80;99.90
983;DHT22;480;48.124;11.578;2023-04-09T15:18:52;11.20;99.90
983;DHT22;480;48.124;11.578;2023-04-09T15:21:20;10.80;99.90
983;DHT22;480;48.124;11.578;2023-04-09T15:23:50;10.80;99.90
983;DHT22;480;48.124;11.578;2023-04-09T15:26:18;10.90;99.90
983;DHT22;480;48.124;11.578;2023-04-09T15:28:45;10.90;99.90
983;DHT22;480;48.124;11.578;2023-04-09T15:31:12;10.90;99.90
983;DHT22;480;48.124;11.578;2023-04-09T15:33:41;10.70;99.90
983;DHT22;480;48.124;11.578;2023-04-09T15:36:09;10.70;99.90
983;DHT22;480;48.124;11.578;2023-04-09T15:38:36;10.90;99.90
983;DHT22;480;48.124;11.578;2023-04-09T15:41:04;10.90;99.90
983;DHT22;480;48.124;11.578;2023-04-09T15:43:31;10.80;99.90
983;DHT22;480;48.124;11.578;2023-04-09T15:45:58;10.40;99.90
983;DHT22;480;48.124;11.578;2023-04-09T15:48:32;10.70;99.90
983;DHT22;480;48.124;11.578;2023-04-09T15:50:59;11.10;99.90
983;DHT22;480;48.124;11.578;2023-04-09T15:53:26;11.40;99.90
983;DHT22;480;48.124;11.578;2023-04-09T15:55:53;11.60;99.90
983;DHT22;480;48.124;11.578;2023-04-09T15:58:23;11.20;99.90
983;DHT22;480;48.124;11.578;2023-04-09T16:00:50;10.90;99.90
983;DHT22;480;48.124;11.578;2023-04-09T16:03:17;10.60;99.90
983;DHT22;480;48.124;11.578;2023-04-09T16:05:46;10.50;99.90
983;DHT22;480;48.124;11.578;2023-04-09T16:08:13;10.50;99.90
983;DHT22;480;48.124;11.578;2023-04-09T16:10:40;10.50;99.90
983;DHT22;480;48.124;11.578;2023-04-09T16:13:07;10.40;99.90
983;DHT22;480;48.124;11.578;2023-04-09T16:15:36;10.70;99.90
983;DHT22;480;48.124;11.578;2023-04-09T16:18:03;10.90;99.90
983;DHT22;480;48.124;11.578;2023-04-09T16:20:30;10.90;99.90
983;DHT22;480;48.124;11.578;2023-04-09T16:22:58;10.50;99.90
983;DHT22;480;48.124;11.578;2023-04-09T16:25:25;10.70;99.90
983;DHT22;480;48.124;11.578;2023-04-09T16:27:52;10.70;99.90
983;DHT22;480;48.124;11.578;2023-04-09T16:30:19;10.50;99.90
983;DHT22;480;48.124;11.578;2023-04-09T16:32:48;10.40;99.90
983;DHT22;480;48.124;11.578;2023-04-09T16:35:15;10.50;99.90